createdAt,value
2018-09-27T00:01:31.924Z,3.83
2018-09-27T00:04:00.872Z,5.87
2018-09-27T00:06:30.174Z,4.93
2018-09-27T00:08:59.315Z,5.90
2018-09-27T00:11:28.441Z,7.13
2018-09-27T00:13:57.441Z,4.23
2018-09-27T00:16:26.389Z,5.70
2018-09-27T00:18:55.350Z,6.20
2018-09-27T00:21:24.282Z,12.03
2018-09-27T00:23:53.409Z,7.83
2018-09-27T00:26:22.385Z,4.57
2018-09-27T00:28:51.514Z,6.17
2018-09-27T00:31:20.457Z,4.40
2018-09-27T00:33:49.486Z,4.50
2018-09-27T00:36:19.402Z,5.97
2018-09-27T00:38:55.386Z,7.00
2018-09-27T00:41:24.544Z,5.57
2018-09-27T00:43:53.635Z,11.50
2018-09-27T00:46:22.521Z,5.13
2018-09-27T00:48:51.627Z,4.60
2018-09-27T00:51:20.546Z,2.83
2018-09-27T00:53:49.537Z,7.83
2018-09-27T00:56:18.543Z,2.93
2018-09-27T00:58:47.568Z,4.60
2018-09-27T01:01:16.518Z,5.03
2018-09-27T01:03:45.631Z,5.43
2018-09-27T01:06:15.523Z,3.27
2018-09-27T01:08:44.450Z,3.40
2018-09-27T01:11:13.387Z,2.30
2018-09-27T01:13:42.412Z,10.73
2018-09-27T01:16:11.360Z,6.57
2018-09-27T01:18:40.319Z,6.00
2018-09-27T01:21:09.295Z,5.10
2018-09-27T01:23:38.296Z,6.00
2018-09-27T01:26:07.257Z,4.13
2018-09-27T01:28:36.253Z,4.07
2018-09-27T01:31:05.380Z,4.87
2018-09-27T01:33:34.437Z,2.77
2018-09-27T01:36:03.435Z,6.93
2018-09-27T01:38:32.369Z,7.27
2018-09-27T01:41:01.295Z,3.30
2018-09-27T01:43:30.220Z,3.53
2018-09-27T01:45:59.144Z,3.30
2018-09-27T01:48:28.166Z,7.50
2018-09-27T01:50:57.190Z,6.53
2018-09-27T01:53:26.258Z,4.17
2018-09-27T01:55:55.332Z,4.57
2018-09-27T01:58:24.369Z,2.10
2018-09-27T02:00:53.358Z,2.57
2018-09-27T02:03:22.463Z,3.87
2018-09-27T02:05:51.785Z,6.73
2018-09-27T02:08:20.715Z,4.23
2018-09-27T02:10:49.767Z,7.67
2018-09-27T02:13:18.702Z,4.87
2018-09-27T02:15:47.699Z,3.23
2018-09-27T02:18:16.630Z,5.08
2018-09-27T02:20:45.574Z,4.93
2018-09-27T02:23:14.513Z,4.13
2018-09-27T02:25:43.457Z,5.47
2018-09-27T02:28:12.363Z,4.12
2018-09-27T02:30:41.269Z,5.43
2018-09-27T02:33:10.253Z,5.37
2018-09-27T02:35:39.205Z,8.67
2018-09-27T02:38:08.210Z,7.87
2018-09-27T02:40:37.242Z,5.30
2018-09-27T02:43:06.332Z,7.10
2018-09-27T02:45:35.258Z,6.05
2018-09-27T02:48:04.193Z,8.78
2018-09-27T02:50:33.396Z,2.73
2018-09-27T02:53:02.362Z,3.30
2018-09-27T02:55:31.387Z,4.00
2018-09-27T02:58:00.373Z,4.40
2018-09-27T03:00:29.295Z,2.70
2018-09-27T03:02:58.235Z,5.27
2018-09-27T03:05:27.219Z,5.90
2018-09-27T03:07:56.156Z,6.80
2018-09-27T03:10:25.116Z,3.07
2018-09-27T03:12:54.055Z,9.20
2018-09-27T03:15:23.027Z,3.73
2018-09-27T03:17:51.984Z,6.57
2018-09-27T03:20:20.907Z,7.50
2018-09-27T03:22:49.807Z,3.50
2018-09-27T03:25:18.818Z,8.30
2018-09-27T03:27:47.774Z,4.97
2018-09-27T03:30:16.695Z,4.60
2018-09-27T03:32:45.644Z,3.20
2018-09-27T03:35:14.554Z,3.43
2018-09-27T03:37:43.568Z,5.97
2018-09-27T03:40:12.585Z,3.33
2018-09-27T03:42:41.591Z,5.73
2018-09-27T03:45:10.580Z,4.57
2018-09-27T03:47:39.552Z,5.90
2018-09-27T03:50:08.654Z,5.60
2018-09-27T03:52:37.708Z,5.27
2018-09-27T03:55:06.725Z,3.43
2018-09-27T03:57:35.704Z,7.87
2018-09-27T04:00:05.203Z,3.70
2018-09-27T04:02:34.144Z,2.93
2018-09-27T04:05:03.104Z,3.57
2018-09-27T04:07:32.122Z,3.33
2018-09-27T04:10:01.049Z,7.47
2018-09-27T04:12:30.062Z,5.28
2018-09-27T04:14:58.980Z,7.13
2018-09-27T04:17:27.961Z,6.00
2018-09-27T04:19:56.936Z,5.13
2018-09-27T04:22:25.970Z,5.15
2018-09-27T04:24:54.934Z,6.57
2018-09-27T04:27:23.911Z,4.50
2018-09-27T04:29:52.850Z,4.43
2018-09-27T04:32:21.757Z,5.13
2018-09-27T04:34:50.678Z,4.57
2018-09-27T04:37:19.683Z,5.13
2018-09-27T04:39:48.643Z,5.00
2018-09-27T04:42:17.617Z,4.87
2018-09-27T04:44:46.940Z,8.70
2018-09-27T04:47:15.866Z,4.67
2018-09-27T04:49:44.803Z,4.03
2018-09-27T04:52:13.788Z,4.87
2018-09-27T04:54:42.726Z,7.87
2018-09-27T04:57:11.665Z,6.40
2018-09-27T04:59:40.634Z,8.77
2018-09-27T05:02:09.589Z,4.10
2018-09-27T05:04:38.525Z,9.43
2018-09-27T05:07:07.491Z,5.33
2018-09-27T05:09:36.464Z,4.80
2018-09-27T05:12:05.349Z,5.83
2018-09-27T05:14:34.276Z,7.70
2018-09-27T05:17:03.301Z,6.30
2018-09-27T05:19:32.267Z,5.27
2018-09-27T05:22:01.197Z,5.23
2018-09-27T05:24:30.665Z,8.33
2018-09-27T05:26:59.618Z,6.30
2018-09-27T05:29:28.546Z,6.80
2018-09-27T05:31:57.506Z,5.07
2018-09-27T05:34:26.657Z,12.20
2018-09-27T05:36:55.604Z,9.80
2018-09-27T05:39:24.584Z,5.40
2018-09-27T05:41:53.576Z,5.87
2018-09-27T05:44:22.635Z,6.57
2018-09-27T05:46:51.583Z,7.30
2018-09-27T05:49:20.572Z,4.43
2018-09-27T05:51:49.506Z,5.30
2018-09-27T05:54:18.516Z,7.47
2018-09-27T05:56:47.466Z,13.63
2018-09-27T05:59:16.381Z,6.80
2018-09-27T06:01:46.126Z,13.00
2018-09-27T06:04:15.457Z,8.03
2018-09-27T06:06:44.471Z,7.83
2018-09-27T06:09:13.538Z,6.17
2018-09-27T06:11:42.493Z,12.40
2018-09-27T06:14:11.431Z,9.20
2018-09-27T06:16:40.514Z,14.20
2018-09-27T06:19:09.432Z,5.70
2018-09-27T06:21:38.586Z,13.97
2018-09-27T06:24:07.793Z,7.77
2018-09-27T06:26:36.735Z,10.70
2018-09-27T06:29:05.712Z,6.77
2018-09-27T06:31:34.644Z,11.97
2018-09-27T06:34:03.601Z,8.63
2018-09-27T06:36:32.550Z,8.37
2018-09-27T06:39:01.480Z,11.40
2018-09-27T06:41:30.469Z,9.07
2018-09-27T06:43:59.358Z,6.57
2018-09-27T06:46:28.288Z,8.07
2018-09-27T06:48:57.268Z,10.30
2018-09-27T06:51:26.230Z,9.33
2018-09-27T06:53:55.196Z,9.73
2018-09-27T06:56:24.147Z,10.60
2018-09-27T06:58:53.159Z,8.70
2018-09-27T07:01:22.209Z,11.87
2018-09-27T07:03:51.122Z,8.27
2018-09-27T07:06:20.154Z,8.00
2018-09-27T07:08:49.289Z,13.43
2018-09-27T07:11:18.254Z,12.47
2018-09-27T07:13:47.205Z,11.20
2018-09-27T07:16:16.190Z,7.87
2018-09-27T07:18:45.174Z,11.17
2018-09-27T07:21:14.087Z,13.03
2018-09-27T07:23:43.030Z,9.87
2018-09-27T07:26:11.980Z,14.37
2018-09-27T07:28:40.911Z,12.87
2018-09-27T07:31:10.692Z,9.47
2018-09-27T07:33:39.625Z,11.93
2018-09-27T07:36:08.545Z,9.33
2018-09-27T07:38:40.511Z,12.07
2018-09-27T07:41:09.462Z,11.53
2018-09-27T07:43:38.433Z,17.90
2018-09-27T07:46:07.417Z,8.20
2018-09-27T07:48:36.620Z,9.30
2018-09-27T07:51:06.183Z,10.87
2018-09-27T07:53:35.145Z,10.53
2018-09-27T07:56:04.226Z,12.17
2018-09-27T07:58:33.229Z,7.73
2018-09-27T08:01:04.094Z,11.63
2018-09-27T08:03:34.719Z,13.20
2018-09-27T08:06:11.113Z,10.97
2018-09-27T08:08:41.928Z,9.00
2018-09-27T08:11:20.195Z,11.77
2018-09-27T08:13:49.148Z,12.80
2018-09-27T08:16:18.093Z,13.27
2018-09-27T08:18:47.933Z,10.97
2018-09-27T08:21:17.286Z,9.27
2018-09-27T08:23:46.067Z,11.30
2018-09-27T08:26:15.004Z,12.57
2018-09-27T08:28:43.953Z,9.03
2018-09-27T08:31:12.891Z,11.47
2018-09-27T08:33:41.869Z,9.63
2018-09-27T08:36:10.830Z,8.97
2018-09-27T08:38:39.815Z,13.03
2018-09-27T08:41:09.562Z,10.03
2018-09-27T08:43:39.786Z,9.28
2018-09-27T08:46:09.814Z,9.20
2018-09-27T08:48:38.908Z,6.80
2018-09-27T08:51:07.811Z,5.43
2018-09-27T08:53:44.075Z,8.73
2018-09-27T08:59:20.078Z,7.60
2018-09-27T09:02:37.313Z,4.95
2018-09-27T09:05:09.933Z,7.63
2018-09-27T09:07:38.885Z,6.50
2018-09-27T09:10:07.795Z,5.22
2018-09-27T09:12:36.768Z,6.33
2018-09-27T09:15:05.749Z,7.25
2018-09-27T09:17:34.699Z,11.03
2018-09-27T09:20:03.633Z,6.47
2018-09-27T09:22:32.615Z,5.17
2018-09-27T09:25:01.559Z,5.28
2018-09-27T09:27:30.891Z,5.70
2018-09-27T09:29:59.911Z,8.68
2018-09-27T09:32:28.825Z,3.15
2018-09-27T09:34:57.846Z,13.08
2018-09-27T09:37:26.810Z,6.22
2018-09-27T09:39:55.755Z,5.37
2018-09-27T09:42:24.695Z,4.90
2018-09-27T09:44:55.581Z,5.03
2018-09-27T09:47:24.651Z,3.83
2018-09-27T09:49:53.653Z,6.37
2018-09-27T09:52:22.737Z,6.08
2018-09-27T09:54:51.704Z,4.03
2018-09-27T09:57:20.753Z,2.67
2018-09-27T09:59:49.776Z,2.65
2018-09-27T10:02:18.900Z,3.42
2018-09-27T10:04:47.815Z,4.40
2018-09-27T10:07:16.741Z,2.47
2018-09-27T10:09:45.703Z,3.20
2018-09-27T10:12:14.659Z,5.25
2018-09-27T10:14:43.577Z,4.08
2018-09-27T10:17:12.502Z,4.00
2018-09-27T10:19:41.441Z,4.78
2018-09-27T10:22:10.422Z,5.85
2018-09-27T10:24:39.457Z,6.37
2018-09-27T10:27:08.508Z,5.87
2018-09-27T10:29:37.591Z,6.35
2018-09-27T10:32:06.534Z,3.55
2018-09-27T10:34:35.518Z,3.45
2018-09-27T10:37:04.576Z,4.33
2018-09-27T10:39:33.492Z,5.47
2018-09-27T10:42:02.477Z,7.25
2018-09-27T10:44:31.411Z,3.50
2018-09-27T10:47:00.674Z,8.40
2018-09-27T10:49:29.595Z,7.22
2018-09-27T10:51:59.692Z,5.67
2018-09-27T10:54:28.623Z,6.00
2018-09-27T10:56:57.567Z,5.97
2018-09-27T10:59:26.530Z,4.67
2018-09-27T11:01:55.460Z,2.60
2018-09-27T11:04:24.981Z,5.25
2018-09-27T11:06:54.038Z,3.62
2018-09-27T11:09:22.962Z,8.25
2018-09-27T11:11:51.928Z,5.15
2018-09-27T11:14:20.895Z,4.45
2018-09-27T11:16:50.711Z,6.53
2018-09-27T11:19:19.658Z,4.75
2018-09-27T11:21:48.605Z,3.98
2018-09-27T11:24:17.864Z,6.20
2018-09-27T11:26:46.838Z,6.00
2018-09-27T11:29:21.114Z,5.65
2018-09-27T11:31:55.499Z,4.60
2018-09-27T11:34:24.918Z,5.80
2018-09-27T11:36:53.835Z,4.70
2018-09-27T11:39:23.595Z,5.60
2018-09-27T11:41:53.192Z,7.10
2018-09-27T11:44:22.185Z,6.87
2018-09-27T11:46:51.486Z,6.65
2018-09-27T11:49:20.457Z,10.08
2018-09-27T11:51:49.387Z,5.28
2018-09-27T11:54:18.297Z,7.92
2018-09-27T11:56:47.496Z,6.53
2018-09-27T11:59:17.017Z,6.30
2018-09-27T12:01:46.212Z,5.65
2018-09-27T12:04:15.117Z,8.93
2018-09-27T12:06:44.268Z,5.55
2018-09-27T12:09:13.513Z,6.08
2018-09-27T12:11:42.558Z,5.05
2018-09-27T12:14:11.949Z,3.98
2018-09-27T12:16:40.959Z,6.78
2018-09-27T12:19:10.041Z,4.25
2018-09-27T12:21:38.943Z,9.05
2018-09-27T12:24:07.828Z,5.45
2018-09-27T12:26:36.948Z,4.40
2018-09-27T12:29:05.948Z,5.50
2018-09-27T12:31:35.024Z,5.08
2018-09-27T12:34:04.042Z,3.83
2018-09-27T12:36:33.034Z,4.15
2018-09-27T12:39:02.027Z,5.37
2018-09-27T12:41:31.270Z,2.98
2018-09-27T12:44:00.341Z,2.60
2018-09-27T12:46:29.355Z,4.05
2018-09-27T12:48:58.475Z,4.00
2018-09-27T12:51:29.249Z,3.02
2018-09-27T12:53:58.118Z,4.00
2018-09-27T12:56:27.244Z,2.90
2018-09-27T12:58:56.183Z,4.37
2018-09-27T13:01:25.648Z,2.72
2018-09-27T13:03:54.628Z,2.90
2018-09-27T13:06:23.636Z,4.42
2018-09-27T13:08:52.581Z,4.17
2018-09-27T13:11:21.450Z,8.30
2018-09-27T13:13:50.394Z,3.92
2018-09-27T13:16:19.305Z,5.05
2018-09-27T13:18:48.479Z,3.22
2018-09-27T13:21:17.429Z,2.70
2018-09-27T13:23:46.432Z,4.72
2018-09-27T13:26:15.535Z,4.05
2018-09-27T13:28:44.564Z,3.60
2018-09-27T13:31:13.407Z,5.33
2018-09-27T13:33:42.692Z,6.25
2018-09-27T13:36:11.632Z,3.75
2018-09-27T13:38:40.536Z,2.35
2018-09-27T13:41:09.521Z,4.35
2018-09-27T13:43:38.459Z,2.42
2018-09-27T13:46:07.638Z,3.42
2018-09-27T13:48:37.018Z,2.42
2018-09-27T13:51:06.062Z,4.22
2018-09-27T13:53:35.033Z,3.00
2018-09-27T13:56:03.950Z,3.37
2018-09-27T13:58:32.905Z,2.77
2018-09-27T14:01:01.825Z,2.02
2018-09-27T14:03:30.752Z,3.05
2018-09-27T14:05:59.736Z,2.60
2018-09-27T14:08:28.686Z,1.60
2018-09-27T14:10:57.624Z,4.45
2018-09-27T14:13:26.867Z,3.72
2018-09-27T14:15:55.847Z,7.00
2018-09-27T14:18:24.768Z,2.58
2018-09-27T14:20:53.859Z,4.00
2018-09-27T14:23:22.787Z,5.10
2018-09-27T14:25:51.815Z,3.00
2018-09-27T14:28:20.784Z,4.80
2018-09-27T14:30:49.805Z,2.77
2018-09-27T14:33:18.693Z,3.70
2018-09-27T14:35:48.623Z,2.87
2018-09-27T14:38:18.421Z,3.30
2018-09-27T14:40:47.372Z,6.15
2018-09-27T14:43:16.295Z,3.95
2018-09-27T14:45:45.354Z,3.37
2018-09-27T14:48:14.404Z,5.17
2018-09-27T14:50:43.329Z,3.10
2018-09-27T14:53:12.219Z,4.42
2018-09-27T14:55:41.141Z,2.90
2018-09-27T14:58:10.101Z,2.60
2018-09-27T15:00:39.050Z,3.98
2018-09-27T15:03:08.032Z,5.10
2018-09-27T15:05:36.954Z,4.20
2018-09-27T15:08:05.958Z,2.33
2018-09-27T15:10:34.886Z,4.92
2018-09-27T15:13:03.792Z,2.45
2018-09-27T15:15:32.706Z,6.92
2018-09-27T15:18:01.916Z,3.67
2018-09-27T15:20:30.845Z,1.75
2018-09-27T15:22:59.838Z,2.42
2018-09-27T15:25:28.822Z,3.80
2018-09-27T15:27:57.770Z,3.98
2018-09-27T15:30:26.691Z,1.75
2018-09-27T15:32:55.656Z,2.27
2018-09-27T15:35:24.627Z,3.17
2018-09-27T15:37:53.951Z,2.65
2018-09-27T15:40:22.889Z,1.47
2018-09-27T15:42:52.167Z,2.22
2018-09-27T15:45:21.092Z,2.08
2018-09-27T15:47:50.167Z,3.77
2018-09-27T15:50:19.072Z,1.65
2018-09-27T15:52:47.997Z,4.97
2018-09-27T15:55:17.231Z,3.10
2018-09-27T15:57:46.182Z,5.33
2018-09-27T16:00:15.089Z,2.77
2018-09-27T16:02:44.061Z,1.85
2018-09-27T16:05:13.406Z,2.02
2018-09-27T16:07:42.320Z,2.33
2018-09-27T16:10:11.247Z,1.27
2018-09-27T16:12:40.224Z,4.58
2018-09-27T16:15:09.192Z,2.17
2018-09-27T16:17:38.132Z,3.60
2018-09-27T16:20:07.053Z,1.52
2018-09-27T16:22:36.000Z,1.47
2018-09-27T16:25:05.099Z,2.60
2018-09-27T16:27:34.037Z,1.17
2018-09-27T16:30:03.013Z,2.35
2018-09-27T16:32:32.796Z,3.55
2018-09-27T16:35:01.891Z,3.33
2018-09-27T16:37:30.940Z,1.60
2018-09-27T16:39:59.930Z,0.98
2018-09-27T16:42:29.174Z,2.17
2018-09-27T16:44:58.167Z,1.50
2018-09-27T16:47:27.109Z,2.00
2018-09-27T16:49:56.119Z,2.42
2018-09-27T16:52:25.061Z,3.52
2018-09-27T16:54:54.011Z,3.42
2018-09-27T16:57:22.946Z,1.75
2018-09-27T16:59:51.935Z,2.15
2018-09-27T17:02:20.884Z,1.20
2018-09-27T17:04:49.991Z,1.12
2018-09-27T17:07:18.932Z,2.72
2018-09-27T17:09:47.910Z,3.17
2018-09-27T17:12:16.885Z,1.85
2018-09-27T17:14:47.246Z,1.52
2018-09-27T17:17:16.197Z,1.55
2018-09-27T17:19:45.150Z,1.42
2018-09-27T17:22:14.097Z,3.50
2018-09-27T17:24:43.084Z,1.27
2018-09-27T17:27:12.031Z,2.70
2018-09-27T17:29:40.978Z,4.12
2018-09-27T17:32:10.785Z,1.47
2018-09-27T17:34:40.839Z,2.52
2018-09-27T17:37:09.818Z,2.35
2018-09-27T17:39:38.844Z,1.22
2018-09-27T17:42:07.995Z,1.30
2018-09-27T17:44:36.962Z,2.05
2018-09-27T17:47:05.866Z,1.45
2018-09-27T17:49:34.835Z,2.25
2018-09-27T17:52:03.765Z,1.02
2018-09-27T17:54:32.810Z,1.02
2018-09-27T17:57:01.784Z,5.87
2018-09-27T17:59:30.786Z,1.15
2018-09-27T18:01:59.736Z,1.85
2018-09-27T18:04:28.674Z,3.55
2018-09-27T18:06:57.663Z,1.45
2018-09-27T18:09:26.646Z,2.25
2018-09-27T18:11:55.836Z,1.35
2018-09-27T18:14:24.809Z,1.42
2018-09-27T18:16:53.714Z,1.57
2018-09-27T18:19:22.980Z,1.47
2018-09-27T18:21:51.955Z,1.52
2018-09-27T18:24:20.885Z,1.20
2018-09-27T18:26:49.954Z,2.02
2018-09-27T18:29:18.856Z,1.57
2018-09-27T18:31:48.085Z,1.17
2018-09-27T18:34:17.078Z,1.15
2018-09-27T18:36:46.065Z,1.22
2018-09-27T18:39:15.314Z,1.00
2018-09-27T18:41:44.300Z,0.72
2018-09-27T18:44:13.262Z,0.55
2018-09-27T18:46:42.206Z,1.02
2018-09-27T18:49:11.165Z,1.57
2018-09-27T18:51:40.256Z,1.07
2018-09-27T18:54:09.189Z,0.70
2018-09-27T18:56:38.111Z,1.00
2018-09-27T18:59:07.099Z,0.90
2018-09-27T19:01:36.064Z,1.62
2018-09-27T19:04:04.995Z,1.40
2018-09-27T19:06:34.584Z,1.32
2018-09-27T19:09:05.031Z,0.82
2018-09-27T19:11:33.965Z,2.10
2018-09-27T19:14:02.922Z,0.82
2018-09-27T19:16:31.909Z,2.25
2018-09-27T19:19:00.882Z,0.78
2018-09-27T19:21:29.889Z,0.98
2018-09-27T19:23:58.904Z,0.85
2018-09-27T19:26:28.138Z,2.17
2018-09-27T19:28:57.113Z,1.55
2018-09-27T19:31:26.056Z,2.42
2018-09-27T19:33:55.074Z,3.67
2018-09-27T19:36:24.016Z,14.50
2018-09-27T19:38:52.957Z,2.60
2018-09-27T19:41:21.921Z,2.08
2018-09-27T19:43:50.910Z,1.82
2018-09-27T19:46:19.813Z,1.98
2018-09-27T19:48:48.776Z,1.50
2018-09-27T19:51:18.044Z,2.27
2018-09-27T19:53:46.982Z,2.00
2018-09-27T19:56:15.890Z,2.92
2018-09-27T19:58:45.658Z,2.35
2018-09-27T20:01:14.718Z,2.45
2018-09-27T20:03:43.761Z,2.90
2018-09-27T20:06:12.741Z,2.65
2018-09-27T20:08:41.832Z,2.15
2018-09-27T20:11:10.928Z,7.58
2018-09-27T20:13:39.922Z,6.05
2018-09-27T20:16:08.986Z,4.08
2018-09-27T20:18:37.876Z,2.70
2018-09-27T20:21:07.257Z,3.65
2018-09-27T20:23:36.251Z,2.47
2018-09-27T20:26:05.319Z,1.72
2018-09-27T20:28:34.431Z,2.67
2018-09-27T20:31:03.357Z,2.40
2018-09-27T20:33:32.388Z,1.85
2018-09-27T20:36:01.311Z,7.08
2018-09-27T20:38:30.570Z,2.45
2018-09-27T20:40:59.501Z,2.62
2018-09-27T20:43:28.562Z,2.33
2018-09-27T20:45:57.566Z,2.83
2018-09-27T20:48:32.925Z,2.85
2018-09-27T20:51:02.061Z,2.50
2018-09-27T20:53:31.109Z,4.05
2018-09-27T20:56:00.062Z,4.53
2018-09-27T20:58:30.074Z,3.60
2018-09-27T21:00:59.549Z,3.95
2018-09-27T21:03:38.767Z,3.62
2018-09-27T21:06:07.973Z,4.35
2018-09-27T21:08:36.919Z,2.87
2018-09-27T21:11:06.027Z,5.22
2018-09-27T21:13:34.947Z,2.47
2018-09-27T21:16:03.963Z,4.12
2018-09-27T21:18:32.980Z,3.05
2018-09-27T21:21:02.004Z,3.95
2018-09-27T21:23:30.945Z,4.60
2018-09-27T21:25:59.907Z,5.03
2018-09-27T21:28:28.955Z,4.20
2018-09-27T21:30:57.928Z,2.60
2018-09-27T21:33:26.949Z,4.33
2018-09-27T21:35:55.878Z,4.08
2018-09-27T21:38:24.877Z,4.67
2018-09-27T21:40:53.947Z,4.58
2018-09-27T21:43:23.879Z,5.42
2018-09-27T21:45:52.694Z,7.75
2018-09-27T21:48:21.829Z,4.70
2018-09-27T21:50:50.767Z,4.92
2018-09-27T21:53:19.787Z,4.00
2018-09-27T21:55:49.018Z,5.78
2018-09-27T21:58:17.943Z,4.50
2018-09-27T22:00:51.013Z,5.28
2018-09-27T22:03:20.493Z,5.45
2018-09-27T22:05:49.481Z,5.47
2018-09-27T22:08:18.487Z,4.62
2018-09-27T22:10:47.813Z,5.67
2018-09-27T22:13:16.846Z,4.40
2018-09-27T22:15:45.951Z,5.00
2018-09-27T22:18:14.911Z,5.22
2018-09-27T22:20:43.914Z,4.37
2018-09-27T22:23:13.000Z,3.95
2018-09-27T22:25:42.792Z,6.28
2018-09-27T22:28:13.422Z,6.10
2018-09-27T22:30:44.256Z,12.03
2018-09-27T22:33:13.666Z,5.72
2018-09-27T22:35:42.635Z,6.90
2018-09-27T22:41:00.502Z,7.72
2018-09-27T22:43:37.529Z,5.28
2018-09-27T22:46:06.613Z,6.08
2018-09-27T22:48:35.525Z,7.85
2018-09-27T22:51:04.584Z,6.27
2018-09-27T22:53:33.585Z,8.60
2018-09-27T22:56:02.601Z,7.03
2018-09-27T22:58:31.577Z,8.55
2018-09-27T23:01:00.563Z,8.00
2018-09-27T23:03:29.499Z,8.85
2018-09-27T23:05:58.440Z,6.53
2018-09-27T23:08:27.443Z,9.68
2018-09-27T23:11:13.990Z,11.20
2018-09-27T23:13:43.035Z,12.57
2018-09-27T23:16:11.969Z,8.35
2018-09-27T23:18:40.899Z,8.78
2018-09-27T23:21:10.016Z,16.57
2018-09-27T23:23:38.941Z,10.33
2018-09-27T23:26:07.842Z,11.80
2018-09-27T23:28:36.817Z,13.18
2018-09-27T23:31:05.774Z,12.30
2018-09-27T23:33:34.759Z,11.43
2018-09-27T23:36:03.725Z,9.55
2018-09-27T23:38:32.898Z,8.93
2018-09-27T23:41:01.832Z,11.00
2018-09-27T23:43:30.837Z,9.58
2018-09-27T23:45:59.867Z,8.53
2018-09-27T23:48:29.415Z,10.25
2018-09-27T23:50:58.334Z,10.13
2018-09-27T23:53:27.330Z,8.33
2018-09-27T23:55:56.288Z,10.23
2018-09-27T23:58:25.342Z,11.80
